Time;durP1;ratioP1;P1;durP2;ratioP2;P2;SDS_P1;SDS_P2;PMS_P1;PMS_P2;Temp;Humidity;BMP_temperature;BMP_pressure;BME280_temperature;BME280_humidity;BME280_pressure;Samples;Min_cycle;Max_cycle;Signal;HPM_P1;HPM_P2
2022/11/04 00:01:27;;;;;;;;;;;11.80;99.90;;;;;;5047473;28;19986;-77
2022/11/04 00:03:57;;;;;;;;;;;11.70;99.90;;;;;;5046946;28;20246;-77
2022/11/04 00:06:25;;;;;;;;;;;11.70;99.90;;;;;;5047120;28;19937;-76
2022/11/04 00:08:54;;;;;;;;;;;11.70;99.90;;;;;;5047685;28;20124;-76
2022/11/04 00:14:05;;;;;;;;;;;11.60;99.90;;;;;;5047968;28;19920;-77
2022/11/04 00:19:16;;;;;;;;;;;11.50;99.90;;;;;;5030998;28;20387;-77
2022/11/04 00:29:55;;;;;;;;;;;11.50;99.90;;;;;;5029877;28;19980;-77
2022/11/04 00:35:07;;;;;;;;;;;11.40;99.90;;;;;;5030147;28;19996;-77
2022/11/04 00:37:36;;;;;;;;;;;11.40;99.90;;;;;;5039995;28;19925;-77
2022/11/04 00:40:04;;;;;;;;;;;11.40;99.90;;;;;;5066109;28;20028;-77
2022/11/04 00:42:32;;;;;;;;;;;11.40;99.90;;;;;;5066572;28;20299;-78
2022/11/04 00:44:58;;;;;;;;;;;11.40;99.90;;;;;;5066077;28;19928;-77
2022/11/04 00:47:25;;;;;;;;;;;11.40;99.90;;;;;;5066531;28;19929;-78
2022/11/04 00:49:53;;;;;;;;;;;11.40;99.90;;;;;;5065948;28;20308;-78
2022/11/04 00:52:19;;;;;;;;;;;11.40;99.90;;;;;;5066114;28;19990;-78
2022/11/04 00:54:46;;;;;;;;;;;11.40;99.90;;;;;;5065806;28;20108;-78
2022/11/04 00:57:15;;;;;;;;;;;11.40;99.90;;;;;;5066532;28;19928;-78
2022/11/04 00:59:44;;;;;;;;;;;11.40;99.90;;;;;;5065983;28;19933;-78
2022/11/04 01:02:11;;;;;;;;;;;11.50;99.90;;;;;;5049956;28;20356;-77
2022/11/04 01:04:38;;;;;;;;;;;11.40;99.90;;;;;;5066479;28;20113;-78
2022/11/04 01:07:05;;;;;;;;;;;11.40;99.90;;;;;;5066094;28;19932;-78
2022/11/04 01:09:32;;;;;;;;;;;11.40;99.90;;;;;;5066823;28;19932;-79
2022/11/04 01:11:59;;;;;;;;;;;11.50;99.90;;;;;;5065547;28;19929;-78
2022/11/04 01:14:27;;;;;;;;;;;11.50;99.90;;;;;;5066302;28;19936;-77
2022/11/04 01:16:54;;;;;;;;;;;11.50;99.90;;;;;;5051505;28;19925;-78
2022/11/04 01:19:21;;;;;;;;;;;11.50;99.90;;;;;;5065620;28;19925;-78
2022/11/04 01:21:50;;;;;;;;;;;11.50;99.90;;;;;;5066109;28;19982;-78
2022/11/04 01:24:17;;;;;;;;;;;11.50;99.90;;;;;;5065839;28;20402;-78
2022/11/04 01:26:44;;;;;;;;;;;11.40;99.90;;;;;;5065658;28;19928;-77
2022/11/04 01:29:10;;;;;;;;;;;11.40;99.90;;;;;;5066128;28;19928;-79
2022/11/04 01:31:39;;;;;;;;;;;11.40;99.90;;;;;;5065479;28;19972;-77
2022/11/04 01:34:06;;;;;;;;;;;11.40;99.90;;;;;;5064764;28;19994;-77
2022/11/04 01:36:33;;;;;;;;;;;11.40;99.90;;;;;;5064802;28;19971;-79
2022/11/04 01:38:59;;;;;;;;;;;11.40;99.90;;;;;;5064916;28;20024;-78
2022/11/04 01:41:27;;;;;;;;;;;11.40;99.90;;;;;;5065130;28;19982;-78
2022/11/04 01:43:55;;;;;;;;;;;11.30;99.90;;;;;;5064424;28;20017;-79
2022/11/04 01:46:35;;;;;;;;;;;11.30;99.90;;;;;;5065252;28;20004;-78
2022/11/04 01:49:06;;;;;;;;;;;11.30;99.90;;;;;;5064832;28;19935;-78
2022/11/04 01:51:35;;;;;;;;;;;11.30;99.90;;;;;;5064544;28;20381;-77
2022/11/04 01:54:03;;;;;;;;;;;11.30;99.90;;;;;;5064468;28;19929;-78
2022/11/04 01:56:31;;;;;;;;;;;11.30;99.90;;;;;;5064801;28;19963;-78
2022/11/04 01:59:00;;;;;;;;;;;11.30;99.90;;;;;;5064529;28;20629;-78
2022/11/04 02:01:27;;;;;;;;;;;11.20;99.90;;;;;;5064383;28;19964;-78
2022/11/04 02:04:24;;;;;;;;;;;11.10;99.90;;;;;;5064524;28;20025;-77
2022/11/04 02:06:46;;;;;;;;;;;11.10;99.90;;;;;;5048576;28;19936;-78
2022/11/04 02:09:13;;;;;;;;;;;11.00;99.90;;;;;;5064359;28;19936;-78
2022/11/04 02:14:26;;;;;;;;;;;10.80;99.90;;;;;;5065112;28;19921;-77
2022/11/04 02:16:55;;;;;;;;;;;10.70;99.90;;;;;;5048138;28;20078;-78
2022/11/04 02:19:32;;;;;;;;;;;10.60;99.90;;;;;;5064347;28;19998;-77
2022/11/04 02:22:18;;;;;;;;;;;10.50;99.90;;;;;;5063660;28;20701;-77
2022/11/04 02:24:58;;;;;;;;;;;10.40;99.90;;;;;;5064144;28;19955;-77
2022/11/04 02:27:32;;;;;;;;;;;10.30;99.90;;;;;;5064188;28;19931;-77
2022/11/04 02:30:11;;;;;;;;;;;10.30;99.90;;;;;;5063620;28;19964;-77
2022/11/04 02:33:08;;;;;;;;;;;10.20;99.90;;;;;;5047795;28;20023;-77
2022/11/04 02:35:39;;;;;;;;;;;10.20;99.90;;;;;;4989857;28;20028;-78
2022/11/04 02:38:10;;;;;;;;;;;10.20;99.90;;;;;;5035155;28;20350;-78
2022/11/04 02:40:44;;;;;;;;;;;10.10;99.90;;;;;;5048646;28;19932;-77
2022/11/04 02:43:15;;;;;;;;;;;10.20;99.90;;;;;;5046832;28;19929;-77
2022/11/04 02:45:45;;;;;;;;;;;10.20;99.90;;;;;;5063788;28;19925;-77
2022/11/04 02:48:16;;;;;;;;;;;10.20;99.90;;;;;;5064429;28;19937;-77
2022/11/04 02:50:46;;;;;;;;;;;10.20;99.90;;;;;;5064238;28;20088;-77
2022/11/04 02:53:15;;;;;;;;;;;10.20;99.90;;;;;;5064110;28;19952;-77
2022/11/04 02:55:44;;;;;;;;;;;10.10;99.90;;;;;;5063752;28;19979;-77
2022/11/04 02:58:14;;;;;;;;;;;10.10;99.90;;;;;;5063814;28;20048;-77
2022/11/04 03:00:42;;;;;;;;;;;10.00;99.90;;;;;;5063727;28;20404;-78
2022/11/04 03:03:12;;;;;;;;;;;9.90;99.90;;;;;;5064663;28;19991;-77
2022/11/04 03:05:39;;;;;;;;;;;9.80;99.90;;;;;;5064140;28;19948;-78
2022/11/04 03:08:09;;;;;;;;;;;9.80;99.90;;;;;;5064281;28;20393;-78
2022/11/04 03:10:36;;;;;;;;;;;9.80;99.90;;;;;;5064183;28;19935;-77
2022/11/04 03:13:06;;;;;;;;;;;9.60;99.90;;;;;;5047188;28;20002;-76
2022/11/04 03:15:34;;;;;;;;;;;9.60;99.90;;;;;;5046978;28;19935;-77
2022/11/04 03:18:03;;;;;;;;;;;9.60;99.90;;;;;;5047726;28;19925;-76
2022/11/04 03:20:32;;;;;;;;;;;9.50;99.90;;;;;;5062805;28;20675;-76
2022/11/04 03:23:00;;;;;;;;;;;9.40;99.90;;;;;;5062948;28;19928;-76
2022/11/04 03:25:28;;;;;;;;;;;9.50;99.90;;;;;;5047163;28;19929;-77
2022/11/04 03:28:01;;;;;;;;;;;9.40;99.90;;;;;;5063596;28;19936;-77
2022/11/04 03:30:32;;;;;;;;;;;9.40;99.90;;;;;;5062806;28;19999;-77
2022/11/04 03:33:01;;;;;;;;;;;9.30;99.90;;;;;;5063105;28;20341;-77
2022/11/04 03:35:28;;;;;;;;;;;9.30;99.90;;;;;;5063393;28;19929;-77
2022/11/04 03:37:57;;;;;;;;;;;9.30;99.90;;;;;;5063194;28;20451;-78
2022/11/04 03:40:24;;;;;;;;;;;9.20;99.90;;;;;;5048240;28;19974;-77
2022/11/04 03:42:56;;;;;;;;;;;9.20;99.90;;;;;;5063235;28;20478;-77
2022/11/04 03:45:23;;;;;;;;;;;9.20;99.90;;;;;;5047080;28;19932;-77
2022/11/04 03:47:50;;;;;;;;;;;9.10;99.90;;;;;;5062928;28;20002;-78
2022/11/04 03:50:20;;;;;;;;;;;9.10;99.90;;;;;;5063139;28;19933;-77
2022/11/04 03:52:47;;;;;;;;;;;9.00;99.90;;;;;;5062838;28;20312;-77
2022/11/04 03:55:15;;;;;;;;;;;9.00;99.90;;;;;;5062760;28;19937;-77
2022/11/04 03:57:48;;;;;;;;;;;9.00;99.90;;;;;;5063683;28;20034;-81
2022/11/04 04:00:16;;;;;;;;;;;8.90;99.90;;;;;;5063170;28;20348;-81
2022/11/04 04:02:44;;;;;;;;;;;;;;;;;;5066522;28;20565;-80
2022/11/04 04:05:13;;;;;;;;;;;8.90;99.90;;;;;;5066609;28;19929;-80
2022/11/04 04:07:42;;;;;;;;;;;8.90;99.90;;;;;;5050876;28;19935;-79
2022/11/04 04:12:56;;;;;;;;;;;8.90;99.90;;;;;;5037721;28;20358;-78
2022/11/04 04:15:25;;;;;;;;;;;8.90;99.90;;;;;;5062068;28;19925;-78
2022/11/04 04:17:54;;;;;;;;;;;8.90;99.90;;;;;;5055618;28;19991;-78
2022/11/04 04:20:23;;;;;;;;;;;8.90;99.90;;;;;;5038397;28;19982;-79
2022/11/04 04:22:53;;;;;;;;;;;9.00;99.90;;;;;;5059310;28;20365;-79
2022/11/04 04:28:07;;;;;;;;;;;9.00;99.90;;;;;;5062734;28;19921;-78
2022/11/04 04:30:34;;;;;;;;;;;9.10;99.90;;;;;;5065181;28;19924;-78
2022/11/04 04:33:04;;;;;;;;;;;9.20;99.90;;;;;;5050634;28;19929;-78
2022/11/04 04:35:42;;;;;;;;;;;9.20;99.90;;;;;;5046811;28;19971;-78
2022/11/04 04:46:32;;;;;;;;;;;9.20;99.90;;;;;;5053919;28;19932;-78
2022/11/04 04:49:04;;;;;;;;;;;9.20;99.90;;;;;;5050258;28;20319;-79
2022/11/04 04:51:31;;;;;;;;;;;9.10;99.90;;;;;;5065887;28;19929;-78
2022/11/04 04:53:58;;;;;;;;;;;9.10;99.90;;;;;;5065898;28;19925;-78
2022/11/04 04:56:25;;;;;;;;;;;9.00;99.90;;;;;;5051231;28;19913;-78
2022/11/04 04:58:53;;;;;;;;;;;8.90;99.90;;;;;;5042347;28;19935;-78
2022/11/04 05:01:20;;;;;;;;;;;8.90;99.90;;;;;;5055937;28;19925;-78
2022/11/04 05:03:47;;;;;;;;;;;8.80;99.90;;;;;;5065741;28;20637;-79
2022/11/04 05:06:13;;;;;;;;;;;8.80;99.90;;;;;;5048966;28;20002;-78
2022/11/04 05:08:40;;;;;;;;;;;8.80;99.90;;;;;;5065779;28;19995;-78
2022/11/04 05:11:07;;;;;;;;;;;8.80;99.90;;;;;;5065659;28;20391;-78
2022/11/04 05:13:34;;;;;;;;;;;8.80;99.90;;;;;;5065501;28;19978;-77
2022/11/04 05:16:04;;;;;;;;;;;8.80;99.90;;;;;;5067127;28;19924;-79
2022/11/04 05:18:31;;;;;;;;;;;8.80;99.90;;;;;;5036393;28;19933;-79
2022/11/04 05:20:58;;;;;;;;;;;8.80;99.90;;;;;;5050098;28;19970;-78
2022/11/04 05:23:25;;;;;;;;;;;8.70;99.90;;;;;;5030436;28;20427;-77
2022/11/04 05:25:57;;;;;;;;;;;8.70;99.90;;;;;;5064349;28;19925;-78
2022/11/04 05:28:24;;;;;;;;;;;8.70;99.90;;;;;;5065649;28;20013;-78
2022/11/04 05:30:51;;;;;;;;;;;8.70;99.90;;;;;;5049790;28;19928;-78
2022/11/04 05:33:20;;;;;;;;;;;8.70;99.90;;;;;;5052334;28;19925;-78
2022/11/04 05:35:47;;;;;;;;;;;8.60;99.90;;;;;;5064890;28;19924;-79
2022/11/04 05:38:13;;;;;;;;;;;8.60;99.90;;;;;;5065723;28;19964;-78
2022/11/04 05:40:40;;;;;;;;;;;8.50;99.90;;;;;;5068051;28;19936;-76
2022/11/04 05:43:07;;;;;;;;;;;8.50;99.90;;;;;;5066828;28;19929;-76
2022/11/04 05:45:34;;;;;;;;;;;8.50;99.90;;;;;;5067942;28;19929;-76
2022/11/04 05:48:02;;;;;;;;;;;8.50;99.90;;;;;;5067803;28;19994;-77
2022/11/04 05:50:32;;;;;;;;;;;8.50;99.90;;;;;;5067818;28;19929;-77
2022/11/04 05:53:00;;;;;;;;;;;8.40;99.90;;;;;;5068881;28;20323;-78
2022/11/04 05:55:27;;;;;;;;;;;8.40;99.90;;;;;;5069410;28;19928;-77
2022/11/04 05:57:56;;;;;;;;;;;8.40;99.90;;;;;;5069957;28;19929;-78
2022/11/04 06:00:23;;;;;;;;;;;8.40;99.90;;;;;;5067998;28;20026;-78
2022/11/04 06:02:50;;;;;;;;;;;8.30;99.90;;;;;;5066894;28;19928;-78
2022/11/04 06:05:17;;;;;;;;;;;8.30;99.90;;;;;;5062345;28;19955;-78
2022/11/04 06:07:49;;;;;;;;;;;8.30;99.90;;;;;;5034130;28;19964;-76
2022/11/04 06:10:16;;;;;;;;;;;8.40;99.90;;;;;;5047933;28;19937;-77
2022/11/04 06:12:43;;;;;;;;;;;8.40;99.90;;;;;;5048981;28;19939;-77
2022/11/04 06:15:10;;;;;;;;;;;8.40;99.90;;;;;;5065038;28;19982;-78
2022/11/04 06:17:37;;;;;;;;;;;8.40;99.90;;;;;;5066015;28;19986;-77
2022/11/04 06:20:05;;;;;;;;;;;8.30;99.90;;;;;;5051641;28;20039;-78
2022/11/04 06:22:32;;;;;;;;;;;8.30;99.90;;;;;;5050351;28;19925;-78
2022/11/04 06:25:00;;;;;;;;;;;8.10;99.90;;;;;;5062542;28;19960;-79
2022/11/04 06:27:27;;;;;;;;;;;8.10;99.90;;;;;;5042184;28;19979;-79
2022/11/04 06:29:55;;;;;;;;;;;8.00;99.90;;;;;;5067087;28;20327;-79
2022/11/04 06:32:21;;;;;;;;;;;8.00;99.90;;;;;;5051712;28;19932;-78
2022/11/04 06:34:48;;;;;;;;;;;8.00;99.90;;;;;;5066741;28;19929;-80
2022/11/04 06:37:25;;;;;;;;;;;8.00;99.90;;;;;;5065971;28;20351;-81
2022/11/04 06:39:52;;;;;;;;;;;8.10;99.90;;;;;;5051739;28;19935;-79
2022/11/04 06:42:20;;;;;;;;;;;8.20;99.90;;;;;;5049143;28;19929;-79
2022/11/04 06:44:47;;;;;;;;;;;8.30;99.90;;;;;;5067328;28;20416;-79
2022/11/04 06:47:15;;;;;;;;;;;8.40;99.90;;;;;;5049623;28;20002;-79
2022/11/04 06:49:42;;;;;;;;;;;8.50;99.90;;;;;;5067669;28;19933;-79
2022/11/04 06:52:09;;;;;;;;;;;8.60;99.90;;;;;;5070177;28;19925;-79
2022/11/04 06:54:36;;;;;;;;;;;8.70;99.90;;;;;;5055865;28;19929;-80
2022/11/04 06:57:03;;;;;;;;;;;8.80;99.90;;;;;;5069209;28;20023;-78
2022/11/04 06:59:31;;;;;;;;;;;8.90;99.90;;;;;;5050224;28;19925;-80
2022/11/04 07:01:58;;;;;;;;;;;9.00;99.90;;;;;;5072256;28;19929;-79
2022/11/04 07:04:25;;;;;;;;;;;9.10;99.90;;;;;;5066428;28;19936;-79
2022/11/04 07:06:52;;;;;;;;;;;9.20;99.90;;;;;;5069589;28;19976;-82
2022/11/04 07:09:19;;;;;;;;;;;9.20;99.90;;;;;;5066947;28;19928;-78
2022/11/04 07:11:46;;;;;;;;;;;9.80;99.90;;;;;;5068618;28;19925;-78
2022/11/04 07:14:13;;;;;;;;;;;9.50;99.90;;;;;;5069120;28;19974;-78
2022/11/04 07:16:42;;;;;;;;;;;9.50;99.90;;;;;;5057818;28;19940;-79
2022/11/04 07:19:11;;;;;;;;;;;9.60;99.90;;;;;;5045478;28;19932;-78
2022/11/04 07:21:38;;;;;;;;;;;9.70;99.90;;;;;;5061899;28;19929;-78
2022/11/04 07:24:06;;;;;;;;;;;9.70;99.90;;;;;;5063490;28;19948;-77
2022/11/04 07:26:35;;;;;;;;;;;9.80;99.90;;;;;;5051781;28;19962;-78
2022/11/04 07:29:05;;;;;;;;;;;9.90;99.90;;;;;;5068345;28;19925;-79
2022/11/04 07:31:32;;;;;;;;;;;9.90;99.90;;;;;;5045916;28;19938;-77
2022/11/04 07:34:01;;;;;;;;;;;10.00;99.90;;;;;;5064096;22;19936;-73
2022/11/04 07:36:28;;;;;;;;;;;10.00;99.90;;;;;;5087667;28;20272;-73
2022/11/04 07:38:55;;;;;;;;;;;10.00;99.90;;;;;;5088108;28;19931;-73
2022/11/04 07:41:22;;;;;;;;;;;10.10;99.90;;;;;;5087254;28;19928;-73
2022/11/04 07:43:49;;;;;;;;;;;10.10;99.90;;;;;;5078440;28;19932;-73
2022/11/04 07:46:16;;;;;;;;;;;10.20;99.90;;;;;;5073636;28;19963;-73
2022/11/04 07:48:43;;;;;;;;;;;10.30;99.90;;;;;;5071019;28;19932;-72
2022/11/04 07:51:13;;;;;;;;;;;10.30;99.90;;;;;;5072133;28;20643;-72
2022/11/04 07:53:40;;;;;;;;;;;10.40;99.90;;;;;;5058864;28;19933;-73
2022/11/04 07:56:08;;;;;;;;;;;10.50;99.90;;;;;;5071515;28;19932;-73
2022/11/04 07:58:37;;;;;;;;;;;10.50;99.90;;;;;;5072924;28;19931;-73
2022/11/04 08:01:04;;;;;;;;;;;10.60;99.90;;;;;;5067467;28;19933;-73
2022/11/04 08:03:31;;;;;;;;;;;10.60;99.90;;;;;;5071413;28;21522;-73
2022/11/04 08:05:59;;;;;;;;;;;10.70;99.90;;;;;;5076685;28;19928;-73
2022/11/04 08:08:27;;;;;;;;;;;10.80;99.90;;;;;;5075524;28;19932;-74
2022/11/04 08:10:55;;;;;;;;;;;10.80;99.90;;;;;;5075267;28;19932;-73
2022/11/04 08:13:23;;;;;;;;;;;10.90;99.90;;;;;;5071377;28;19935;-75
2022/11/04 08:15:49;;;;;;;;;;;11.00;99.90;;;;;;5071290;28;19932;-75
2022/11/04 08:18:16;;;;;;;;;;;11.10;99.90;;;;;;5072073;28;20319;-76
2022/11/04 08:20:47;;;;;;;;;;;11.20;99.90;;;;;;5065696;28;19992;-76
2022/11/04 08:23:14;;;;;;;;;;;11.30;99.90;;;;;;5063780;28;20030;-74
2022/11/04 08:25:42;;;;;;;;;;;11.40;99.90;;;;;;5063541;28;19951;-76
2022/11/04 08:28:11;;;;;;;;;;;11.40;99.90;;;;;;5065782;28;19947;-76
2022/11/04 08:30:38;;;;;;;;;;;11.40;99.90;;;;;;5067908;28;20009;-76
2022/11/04 08:33:05;;;;;;;;;;;11.50;99.90;;;;;;5075189;28;19947;-76
2022/11/04 08:35:32;;;;;;;;;;;11.50;99.90;;;;;;5075488;28;19940;-76
2022/11/04 08:37:58;;;;;;;;;;;11.60;99.90;;;;;;5075276;28;19932;-76
2022/11/04 08:40:25;;;;;;;;;;;12.00;99.90;;;;;;5078563;28;19936;-76
2022/11/04 08:42:53;;;;;;;;;;;12.30;99.90;;;;;;5061379;28;19950;-76
2022/11/04 08:45:21;;;;;;;;;;;12.80;99.90;;;;;;5064951;28;19939;-76
2022/11/04 08:47:48;;;;;;;;;;;13.30;99.90;;;;;;5072141;28;20602;-76
2022/11/04 08:50:15;;;;;;;;;;;13.70;99.90;;;;;;5065274;28;19932;-74
2022/11/04 08:52:41;;;;;;;;;;;14.00;99.90;;;;;;5068800;28;19932;-75
2022/11/04 08:55:09;;;;;;;;;;;14.20;99.90;;;;;;5064495;28;19928;-75
2022/11/04 08:57:36;;;;;;;;;;;14.40;99.90;;;;;;5059569;28;19970;-74
2022/11/04 09:00:05;;;;;;;;;;;14.60;99.90;;;;;;5050790;28;19932;-74
2022/11/04 09:02:32;;;;;;;;;;;14.50;99.90;;;;;;5058583;28;19940;-75
2022/11/04 09:04:58;;;;;;;;;;;14.40;99.90;;;;;;5070534;28;20003;-75
2022/11/04 09:07:25;;;;;;;;;;;14.40;99.90;;;;;;5058632;28;19975;-75
2022/11/04 09:09:52;;;;;;;;;;;14.30;99.90;;;;;;5070151;28;19928;-74
2022/11/04 09:12:19;;;;;;;;;;;14.00;99.90;;;;;;5052139;28;20024;-75
2022/11/04 09:14:46;;;;;;;;;;;14.00;99.90;;;;;;5067403;28;19978;-74
2022/11/04 09:17:14;;;;;;;;;;;13.80;99.90;;;;;;5066913;28;19928;-75
2022/11/04 09:19:40;;;;;;;;;;;13.60;99.90;;;;;;5067460;28;19932;-74
2022/11/04 09:22:07;;;;;;;;;;;13.50;99.90;;;;;;5074874;28;19932;-73
2022/11/04 09:24:34;;;;;;;;;;;15.00;99.90;;;;;;5065111;28;21150;-72
2022/11/04 09:27:01;;;;;;;;;;;13.20;99.90;;;;;;5073695;28;19940;-73
2022/11/04 09:29:32;;;;;;;;;;;13.10;99.90;;;;;;5071636;28;20015;-73
2022/11/04 09:31:59;;;;;;;;;;;13.10;99.90;;;;;;5066124;28;20000;-73
2022/11/04 09:34:27;;;;;;;;;;;13.30;99.90;;;;;;5057754;28;19929;-73
2022/11/04 09:36:54;;;;;;;;;;;13.40;99.90;;;;;;5051523;28;19928;-73
2022/11/04 09:39:21;;;;;;;;;;;13.70;99.90;;;;;;5076828;28;19951;-73
2022/11/04 09:41:56;;;;;;;;;;;13.90;99.90;;;;;;5072362;28;21211;-73
2022/11/04 09:44:24;;;;;;;;;;;14.10;99.90;;;;;;5065118;28;20037;-74
2022/11/04 09:46:52;;;;;;;;;;;14.30;99.90;;;;;;5063307;28;19983;-73
2022/11/04 09:49:19;;;;;;;;;;;14.40;99.90;;;;;;5068449;28;19924;-74
2022/11/04 09:51:48;;;;;;;;;;;14.40;99.90;;;;;;5061068;28;19928;-74
2022/11/04 09:54:18;;;;;;;;;;;14.30;99.90;;;;;;5055245;28;19952;-74
2022/11/04 09:56:45;;;;;;;;;;;14.20;99.90;;;;;;5067106;28;20715;-74
2022/11/04 09:59:14;;;;;;;;;;;14.00;99.90;;;;;;5065194;28;19928;-74
2022/11/04 10:01:46;;;;;;;;;;;13.90;99.90;;;;;;5084697;28;20055;-74
2022/11/04 10:04:24;;;;;;;;;;;13.80;99.90;;;;;;5063546;28;19928;-74
2022/11/04 10:07:01;;;;;;;;;;;13.70;99.90;;;;;;5053263;28;19928;-74
2022/11/04 10:09:40;;;;;;;;;;;13.60;99.90;;;;;;5063443;28;19936;-74
2022/11/04 10:12:15;;;;;;;;;;;13.50;99.90;;;;;;5062395;28;19973;-74
2022/11/04 10:14:52;;;;;;;;;;;13.60;99.90;;;;;;5052344;28;20029;-74
2022/11/04 10:17:24;;;;;;;;;;;13.80;99.90;;;;;;5069856;28;19999;-75
2022/11/04 10:19:56;;;;;;;;;;;14.00;99.90;;;;;;5068587;28;19951;-74
2022/11/04 10:22:28;;;;;;;;;;;14.30;99.90;;;;;;5064048;28;20019;-72
2022/11/04 10:24:59;;;;;;;;;;;14.30;99.90;;;;;;5048055;28;19928;-73
2022/11/04 10:27:27;;;;;;;;;;;14.60;99.90;;;;;;5059365;28;19944;-75
2022/11/04 10:29:56;;;;;;;;;;;14.80;99.90;;;;;;5065489;28;19932;-75
2022/11/04 10:32:26;;;;;;;;;;;15.00;99.90;;;;;;5061966;28;19940;-75
2022/11/04 10:34:56;;;;;;;;;;;15.10;99.90;;;;;;5059877;28;21999;-72
2022/11/04 10:37:25;;;;;;;;;;;15.10;99.90;;;;;;5067026;28;19932;-73
2022/11/04 10:39:55;;;;;;;;;;;15.20;99.90;;;;;;5067215;28;19928;-73
2022/11/04 10:42:22;;;;;;;;;;;15.30;99.90;;;;;;5075293;28;19936;-73
2022/11/04 10:44:50;;;;;;;;;;;15.30;99.90;;;;;;5080273;28;19936;-73
2022/11/04 10:47:21;;;;;;;;;;;15.40;99.90;;;;;;5068201;28;19928;-73
2022/11/04 10:50:01;;;;;;;;;;;15.50;99.90;;;;;;5062467;28;19978;-73
2022/11/04 10:52:32;;;;;;;;;;;15.70;99.90;;;;;;5057639;28;20782;-73
2022/11/04 10:54:58;;;;;;;;;;;15.80;99.90;;;;;;5069923;28;19936;-73
2022/11/04 10:57:25;;;;;;;;;;;15.90;99.90;;;;;;5074116;28;20476;-73
2022/11/04 10:59:53;;;;;;;;;;;16.20;99.90;;;;;;5075263;28;20054;-74
2022/11/04 11:02:42;;;;;;;;;;;16.40;99.90;;;;;;5074110;28;19939;-73
2022/11/04 11:05:13;;;;;;;;;;;16.40;99.90;;;;;;5070121;28;19943;-73
2022/11/04 11:07:43;;;;;;;;;;;16.30;99.90;;;;;;5074045;28;20014;-73
2022/11/04 11:10:16;;;;;;;;;;;16.10;99.90;;;;;;5068724;28;21253;-74
2022/11/04 11:12:50;;;;;;;;;;;16.00;99.90;;;;;;5061552;28;20093;-74
2022/11/04 11:15:19;;;;;;;;;;;15.80;99.90;;;;;;5069439;28;19928;-73
2022/11/04 11:17:46;;;;;;;;;;;15.60;99.90;;;;;;5063188;28;19956;-73
2022/11/04 11:20:19;;;;;;;;;;;15.40;99.90;;;;;;5067649;28;19936;-74
2022/11/04 11:22:50;;;;;;;;;;;15.30;99.90;;;;;;5071647;28;19931;-74
2022/11/04 11:25:22;;;;;;;;;;;15.30;99.90;;;;;;5068039;28;19964;-74
2022/11/04 11:27:49;;;;;;;;;;;15.20;99.90;;;;;;5068306;28;19995;-73
2022/11/04 11:30:22;;;;;;;;;;;15.30;99.90;;;;;;5060024;28;20350;-73
2022/11/04 11:32:54;;;;;;;;;;;15.40;99.90;;;;;;5073042;28;19932;-73
2022/11/04 11:35:23;;;;;;;;;;;15.50;99.90;;;;;;5075534;28;19948;-73
2022/11/04 11:37:51;;;;;;;;;;;15.50;99.90;;;;;;5072624;28;20030;-74
2022/11/04 11:40:25;;;;;;;;;;;15.60;99.90;;;;;;5070355;28;19936;-74
2022/11/04 11:42:52;;;;;;;;;;;15.70;99.90;;;;;;5071743;28;19993;-73
2022/11/04 11:45:20;;;;;;;;;;;15.80;99.90;;;;;;5058918;28;20431;-73
2022/11/04 11:47:53;;;;;;;;;;;15.80;99.90;;;;;;5068881;28;19963;-72
2022/11/04 11:50:23;;;;;;;;;;;15.70;99.90;;;;;;5072435;28;19995;-73
2022/11/04 11:55:36;;;;;;;;;;;15.50;99.90;;;;;;5104034;22;19931;-78
2022/11/04 11:58:05;;;;;;;;;;;15.40;99.90;;;;;;5086975;28;20391;-78
2022/11/04 12:00:37;;;;;;;;;;;15.30;99.90;;;;;;5084573;28;19964;-78
2022/11/04 12:03:10;;;;;;;;;;;15.20;99.90;;;;;;5087364;28;20407;-78
2022/11/04 12:05:45;;;;;;;;;;;15.20;99.90;;;;;;5083783;28;19924;-78
2022/11/04 12:08:23;;;;;;;;;;;15.20;99.90;;;;;;5099089;28;19986;-79
2022/11/04 12:10:56;;;;;;;;;;;15.30;99.90;;;;;;5086356;28;19927;-79
2022/11/04 12:13:25;;;;;;;;;;;15.30;99.90;;;;;;5083685;28;19924;-79
2022/11/04 12:16:05;;;;;;;;;;;15.50;99.90;;;;;;5081214;28;19931;-78
2022/11/04 12:18:52;;;;;;;;;;;15.70;99.90;;;;;;5083137;28;20011;-78
2022/11/04 12:21:21;;;;;;;;;;;15.90;99.90;;;;;;5093824;28;20465;-78
2022/11/04 12:23:51;;;;;;;;;;;16.00;99.90;;;;;;5081298;28;19924;-77
2022/11/04 12:26:26;;;;;;;;;;;16.10;99.90;;;;;;5080468;28;19928;-77
2022/11/04 12:28:59;;;;;;;;;;;16.20;99.90;;;;;;5082965;28;20233;-77
2022/11/04 12:31:32;;;;;;;;;;;16.40;99.90;;;;;;5077391;28;19955;-77
2022/11/04 12:34:03;;;;;;;;;;;16.70;99.90;;;;;;5080368;28;20378;-78
2022/11/04 12:36:41;;;;;;;;;;;17.10;99.90;;;;;;5080898;28;19928;-77
2022/11/04 12:39:18;;;;;;;;;;;17.50;99.90;;;;;;5084541;28;20018;-79
2022/11/04 12:41:52;;;;;;;;;;;17.80;99.90;;;;;;5081631;28;20313;-78
2022/11/04 12:44:24;;;;;;;;;;;18.20;99.90;;;;;;5084733;28;19928;-78
2022/11/04 12:46:57;;;;;;;;;;;18.30;99.90;;;;;;5081312;28;19932;-81
2022/11/04 12:49:38;;;;;;;;;;;18.60;99.90;;;;;;5085765;28;19924;-77
2022/11/04 12:52:11;;;;;;;;;;;18.80;99.90;;;;;;5087441;28;20395;-78
2022/11/04 12:54:45;;;;;;;;;;;18.90;99.90;;;;;;5080178;28;19924;-80
2022/11/04 12:57:17;;;;;;;;;;;18.90;99.90;;;;;;5099007;28;20021;-77
2022/11/04 12:59:54;;;;;;;;;;;18.70;99.90;;;;;;5086336;28;20280;-77
2022/11/04 13:02:23;;;;;;;;;;;18.60;99.90;;;;;;5086819;28;20026;-78
2022/11/04 13:04:56;;;;;;;;;;;18.40;99.90;;;;;;5105810;28;20805;-80
2022/11/04 13:07:25;;;;;;;;;;;18.30;99.90;;;;;;5083675;28;19924;-79
2022/11/04 13:09:53;;;;;;;;;;;18.10;99.90;;;;;;5101297;28;19985;-82
2022/11/04 13:12:24;;;;;;;;;;;17.80;99.90;;;;;;5083877;28;19928;-78
2022/11/04 13:14:53;;;;;;;;;;;17.60;99.90;;;;;;5085083;28;20019;-77
2022/11/04 13:17:24;;;;;;;;;;;17.30;99.90;;;;;;5084881;28;19928;-78
2022/11/04 13:19:52;;;;;;;;;;;17.00;99.90;;;;;;5095221;28;19986;-82
2022/11/04 13:22:22;;;;;;;;;;;16.80;99.90;;;;;;5072955;28;19928;-79
2022/11/04 13:24:51;;;;;;;;;;;16.50;99.90;;;;;;5077364;28;19985;-78
2022/11/04 13:27:20;;;;;;;;;;;16.30;99.90;;;;;;5082984;28;19977;-78
2022/11/04 13:29:51;;;;;;;;;;;16.20;99.90;;;;;;5082662;28;19939;-79
2022/11/04 13:32:25;;;;;;;;;;;16.10;99.90;;;;;;5087755;28;19936;-80
2022/11/04 13:34:54;;;;;;;;;;;15.90;99.90;;;;;;5084589;28;19966;-83
2022/11/04 13:37:24;;;;;;;;;;;15.80;99.90;;;;;;5088790;28;19935;-79
2022/11/04 13:39:53;;;;;;;;;;;15.70;99.90;;;;;;5085813;28;20019;-80
2022/11/04 13:42:30;;;;;;;;;;;15.60;99.90;;;;;;5094020;28;20302;-81
2022/11/04 13:45:03;;;;;;;;;;;15.60;99.90;;;;;;5087265;28;19932;-79
2022/11/04 13:47:34;;;;;;;;;;;15.50;99.90;;;;;;5094444;28;19930;-81
2022/11/04 13:50:01;;;;;;;;;;;15.60;99.90;;;;;;5088272;28;19925;-80
2022/11/04 13:52:30;;;;;;;;;;;15.50;99.90;;;;;;5085175;28;19932;-79
2022/11/04 13:54:58;;;;;;;;;;;15.40;99.90;;;;;;5096272;28;20384;-79
2022/11/04 13:57:27;;;;;;;;;;;15.40;99.90;;;;;;5071578;28;19928;-79
2022/11/04 14:00:21;;;;;;;;;;;15.40;99.90;;;;;;5092127;28;19928;-79
2022/11/04 14:02:48;;;;;;;;;;;15.40;99.90;;;;;;5092920;28;19954;-79
2022/11/04 14:05:38;;;;;;;;;;;15.40;99.90;;;;;;5079022;28;20256;-80
2022/11/04 14:08:09;;;;;;;;;;;15.30;99.90;;;;;;5078629;28;19924;-79
2022/11/04 14:10:37;;;;;;;;;;;15.20;99.90;;;;;;5085067;28;19939;-78
2022/11/04 14:13:26;;;;;;;;;;;15.10;99.90;;;;;;5093096;28;19924;-78
2022/11/04 14:16:01;;;;;;;;;;;15.10;99.90;;;;;;5097071;28;19924;-77
2022/11/04 14:18:29;;;;;;;;;;;14.90;99.90;;;;;;5085641;28;19928;-77
2022/11/04 14:21:06;;;;;;;;;;;14.80;99.90;;;;;;5083222;28;19932;-77
2022/11/04 14:23:33;;;;;;;;;;;14.70;99.90;;;;;;5084098;28;19928;-77
2022/11/04 14:26:01;;;;;;;;;;;14.50;99.90;;;;;;5093647;28;19939;-77
2022/11/04 14:28:29;;;;;;;;;;;14.40;99.90;;;;;;5084579;28;20017;-76
2022/11/04 14:30:57;;;;;;;;;;;14.10;99.90;;;;;;5079091;28;19928;-76
2022/11/04 14:33:42;;;;;;;;;;;14.00;99.90;;;;;;5081363;28;19959;-77
2022/11/04 14:36:26;;;;;;;;;;;13.80;99.90;;;;;;5103747;28;20669;-77
2022/11/04 14:38:54;;;;;;;;;;;13.70;99.90;;;;;;5087144;28;19935;-76
2022/11/04 14:41:22;;;;;;;;;;;13.60;99.90;;;;;;5093860;28;19928;-76
2022/11/04 14:43:49;;;;;;;;;;;13.50;99.90;;;;;;5084259;28;19927;-77
2022/11/04 14:46:21;;;;;;;;;;;13.40;99.90;;;;;;5084935;28;19950;-76
2022/11/04 14:48:52;;;;;;;;;;;13.30;99.90;;;;;;5075023;28;20014;-77
2022/11/04 14:51:24;;;;;;;;;;;13.20;99.90;;;;;;5084043;28;19928;-77
2022/11/04 14:53:54;;;;;;;;;;;13.20;99.90;;;;;;5082421;28;19985;-76
2022/11/04 14:56:22;;;;;;;;;;;13.10;99.90;;;;;;5093977;28;19952;-77
2022/11/04 14:58:55;;;;;;;;;;;13.00;99.90;;;;;;5080600;28;20011;-77
2022/11/04 15:01:24;;;;;;;;;;;13.00;99.90;;;;;;5078418;28;20028;-79
2022/11/04 15:03:52;;;;;;;;;;;12.90;99.90;;;;;;5091967;28;19932;-78
2022/11/04 15:06:29;;;;;;;;;;;12.90;99.90;;;;;;5076500;28;20055;-78
2022/11/04 15:08:58;;;;;;;;;;;12.80;99.90;;;;;;5075720;28;19934;-80
2022/11/04 15:14:17;;;;;;;;;;;12.70;99.90;;;;;;5070782;28;21965;-82